Time;durP1;ratioP1;P1;durP2;ratioP2;P2;SDS_P1;SDS_P2;PMS_P1;PMS_P2;Temp;Humidity;BMP_temperature;BMP_pressure;BME280_temperature;BME280_humidity;BME280_pressure;Samples;Min_cycle;Max_cycle;Signal;HPM_P1;HPM_P2
2021/06/14 00:02:30;;;;;;;29.23;22.88;;;;;;;;;;6325895;28;20052;-69
2021/06/14 00:05:35;;;;;;;23.70;21.05;;;;;;;;;;6325947;28;20178;-70
2021/06/14 00:08:41;;;;;;;24.20;21.60;;;;;;;;;;6325260;28;20487;-69
2021/06/14 00:11:42;;;;;;;22.25;19.95;;;;;;;;;;6325738;28;20459;-70
2021/06/14 00:14:46;;;;;;;23.38;20.95;;;;;;;;;;6325950;27;20128;-69
2021/06/14 00:17:48;;;;;;;22.50;20.25;;;;;;;;;;6324663;28;20047;-70
2021/06/14 00:20:53;;;;;;;22.10;19.80;;;;;;;;;;6325404;28;20055;-69
2021/06/14 00:23:56;;;;;;;21.90;19.58;;;;;;;;;;6324946;28;20052;-69
2021/06/14 00:26:58;;;;;;;23.23;19.77;;;;;;;;;;6324662;28;20524;-68
2021/06/14 00:29:59;;;;;;;21.38;19.15;;;;;;;;;;6323532;28;20207;-69
2021/06/14 00:33:02;;;;;;;22.15;19.73;;;;;;;;;;6324449;28;20064;-68
2021/06/14 00:36:04;;;;;;;20.38;18.27;;;;;;;;;;6324276;28;20518;-69
2021/06/14 00:39:07;;;;;;;24.70;18.90;;;;;;;;;;6324798;28;20044;-69
2021/06/14 00:42:09;;;;;;;23.92;18.48;;;;;;;;;;6323385;28;20548;-70
2021/06/14 00:45:15;;;;;;;22.70;18.92;;;;;;;;;;6324601;28;20506;-70
2021/06/14 00:48:17;;;;;;;26.20;19.40;;;;;;;;;;6324184;28;20051;-69
2021/06/14 00:51:18;;;;;;;19.70;17.60;;;;;;;;;;6324848;28;20117;-70
2021/06/14 00:54:21;;;;;;;19.67;17.63;;;;;;;;;;6324420;28;20044;-69
2021/06/14 00:57:23;;;;;;;20.73;18.17;;;;;;;;;;6323773;28;20384;-69
2021/06/14 01:00:25;;;;;;;22.38;17.30;;;;;;;;;;6323884;28;20181;-69
2021/06/14 01:03:27;;;;;;;19.02;17.02;;;;;;;;;;6311248;22;20199;-71
2021/06/14 01:06:29;;;;;;;18.70;16.27;;;;;;;;;;6224273;28;20081;-71
2021/06/14 01:09:32;;;;;;;18.60;16.70;;;;;;;;;;6224166;28;20050;-71
2021/06/14 01:12:36;;;;;;;18.15;16.13;;;;;;;;;;6224412;28;20088;-71
2021/06/14 01:15:45;;;;;;;18.23;15.90;;;;;;;;;;6224134;28;20557;-71
2021/06/14 01:18:50;;;;;;;19.65;15.68;;;;;;;;;;6213851;28;20053;-70
2021/06/14 01:22:16;;;;;;;18.02;15.73;;;;;;;;;;6223685;28;20053;-72
2021/06/14 01:25:21;;;;;;;18.98;16.98;;;;;;;;;;6223953;28;20052;-71
2021/06/14 01:28:25;;;;;;;19.42;15.77;;;;;;;;;;6223235;28;20416;-71
2021/06/14 01:31:28;;;;;;;17.95;16.15;;;;;;;;;;6223659;28;20054;-71
2021/06/14 01:34:31;;;;;;;16.52;14.82;;;;;;;;;;6223210;28;20088;-71
2021/06/14 01:37:34;;;;;;;17.00;14.90;;;;;;;;;;6222877;28;20050;-71
2021/06/14 01:40:36;;;;;;;17.52;15.32;;;;;;;;;;6219459;28;20556;-71
2021/06/14 01:43:41;;;;;;;17.25;15.45;;;;;;;;;;6222847;28;20064;-71
2021/06/14 01:46:43;;;;;;;15.63;14.10;;;;;;;;;;6222916;28;20431;-71
2021/06/14 01:49:45;;;;;;;17.10;13.77;;;;;;;;;;6222904;28;20500;-72
2021/06/14 01:52:47;;;;;;;16.17;14.48;;;;;;;;;;6222971;28;20050;-71
2021/06/14 01:55:49;;;;;;;15.93;14.18;;;;;;;;;;6222813;28;20042;-71
2021/06/14 01:58:52;;;;;;;17.00;14.55;;;;;;;;;;6222477;28;20465;-72
2021/06/14 02:01:54;;;;;;;14.77;13.27;;;;;;;;;;6223680;28;20046;-72
2021/06/14 02:04:56;;;;;;;14.52;12.70;;;;;;;;;;6222163;28;20042;-72
2021/06/14 02:07:59;;;;;;;16.40;13.05;;;;;;;;;;6222719;28;20106;-72
2021/06/14 02:11:01;;;;;;;14.75;12.65;;;;;;;;;;6222984;28;20070;-71
2021/06/14 02:14:08;;;;;;;16.48;13.27;;;;;;;;;;6222133;28;20384;-71
2021/06/14 02:17:12;;;;;;;16.90;14.10;;;;;;;;;;6221967;28;20446;-70
2021/06/14 02:20:15;;;;;;;17.08;13.88;;;;;;;;;;6211557;28;20042;-71
2021/06/14 02:23:16;;;;;;;18.52;14.55;;;;;;;;;;6222539;28;20484;-71
2021/06/14 02:26:18;;;;;;;17.98;14.02;;;;;;;;;;6212842;28;20130;-71
2021/06/14 02:29:21;;;;;;;18.25;15.73;;;;;;;;;;6223013;28;20091;-71
2021/06/14 02:32:23;;;;;;;18.48;15.82;;;;;;;;;;6221156;28;20073;-71
2021/06/14 02:35:25;;;;;;;20.52;16.27;;;;;;;;;;6222919;28;20469;-71
2021/06/14 02:38:27;;;;;;;17.98;16.08;;;;;;;;;;6222069;28;20477;-71
2021/06/14 02:41:29;;;;;;;19.30;15.55;;;;;;;;;;6222290;28;20057;-71
2021/06/14 02:44:33;;;;;;;18.90;16.30;;;;;;;;;;6221655;28;20053;-73
2021/06/14 02:47:36;;;;;;;18.02;16.23;;;;;;;;;;6222187;28;20126;-71
2021/06/14 02:50:38;;;;;;;18.80;15.73;;;;;;;;;;6221488;28;20433;-71
2021/06/14 02:53:40;;;;;;;18.27;15.35;;;;;;;;;;6225691;28;20058;-71
2021/06/14 02:56:42;;;;;;;19.15;16.52;;;;;;;;;;6226530;28;20496;-71
2021/06/14 02:59:48;;;;;;;19.48;17.25;;;;;;;;;;6226039;28;20485;-71
2021/06/14 03:02:50;;;;;;;24.10;17.88;;;;;;;;;;6225841;28;20054;-71
2021/06/14 03:05:52;;;;;;;20.42;18.33;;;;;;;;;;6223819;28;20042;-71
2021/06/14 03:08:54;;;;;;;22.17;18.10;;;;;;;;;;6222234;28;20388;-71
2021/06/14 03:11:57;;;;;;;21.43;19.00;;;;;;;;;;6235433;28;20083;-71
2021/06/14 03:15:03;;;;;;;20.95;18.70;;;;;;;;;;6225892;28;20493;-71
2021/06/14 03:18:06;;;;;;;24.55;19.15;;;;;;;;;;6226394;28;20122;-71
2021/06/14 03:21:08;;;;;;;20.98;18.77;;;;;;;;;;6225695;28;20494;-71
2021/06/14 03:24:10;;;;;;;23.80;19.83;;;;;;;;;;6225767;28;20069;-71
2021/06/14 03:27:15;;;;;;;25.25;19.13;;;;;;;;;;6226002;28;20401;-71
2021/06/14 03:30:20;;;;;;;24.77;20.95;;;;;;;;;;6202076;28;20099;-71
2021/06/14 03:33:22;;;;;;;22.42;19.63;;;;;;;;;;6226358;28;20106;-71
2021/06/14 03:36:29;;;;;;;29.08;19.23;;;;;;;;;;6225523;28;20057;-71
2021/06/14 03:39:31;;;;;;;23.42;20.30;;;;;;;;;;6225419;28;20104;-71
2021/06/14 03:42:32;;;;;;;28.35;20.77;;;;;;;;;;6225862;28;20106;-71
2021/06/14 03:45:36;;;;;;;24.90;21.27;;;;;;;;;;6225314;28;20103;-71
2021/06/14 03:48:38;;;;;;;28.30;21.55;;;;;;;;;;6224880;28;20438;-71
2021/06/14 03:51:40;;;;;;;24.98;21.15;;;;;;;;;;6226021;28;20060;-71
2021/06/14 03:54:42;;;;;;;28.33;23.38;;;;;;;;;;6225336;28;20057;-70
2021/06/14 03:57:44;;;;;;;30.15;22.75;;;;;;;;;;6225062;28;20396;-72
2021/06/14 04:00:47;;;;;;;28.52;23.42;;;;;;;;;;6225087;28;20512;-71
2021/06/14 04:03:59;;;;;;;29.52;24.48;;;;;;;;;;6227579;28;20132;-70
2021/06/14 04:07:01;;;;;;;29.38;24.33;;;;;;;;;;6225893;28;20053;-70
2021/06/14 04:10:03;;;;;;;28.30;23.50;;;;;;;;;;6223765;28;20076;-71
2021/06/14 04:13:07;;;;;;;28.80;23.67;;;;;;;;;;6224685;28;20041;-70
2021/06/14 04:16:10;;;;;;;29.38;24.38;;;;;;;;;;6223677;28;20058;-71
2021/06/14 04:19:12;;;;;;;;;;;;;;;;;;6224927;28;20079;-71
2021/06/14 04:22:13;;;;;;;30.23;23.90;;;;;;;;;;6224037;28;20008;-71
2021/06/14 04:25:15;;;;;;;31.70;23.90;;;;;;;;;;6224822;28;20065;-70
2021/06/14 04:28:17;;;;;;;27.50;23.52;;;;;;;;;;6224529;28;20061;-71
2021/06/14 04:31:20;;;;;;;27.67;24.48;;;;;;;;;;6224870;28;20046;-71
2021/06/14 04:34:22;;;;;;;27.90;22.48;;;;;;;;;;6224825;28;20056;-71
2021/06/14 04:37:24;;;;;;;28.27;23.67;;;;;;;;;;6224962;28;20057;-71
2021/06/14 04:40:26;;;;;;;30.23;24.02;;;;;;;;;;6223728;28;20070;-71
2021/06/14 04:43:27;;;;;;;30.38;23.38;;;;;;;;;;6224838;28;20057;-71
2021/06/14 04:46:31;;;;;;;26.85;23.38;;;;;;;;;;6217868;28;20064;-71
2021/06/14 04:49:32;;;;;;;28.20;22.48;;;;;;;;;;6224321;28;20046;-71
2021/06/14 04:52:34;;;;;;;24.75;22.15;;;;;;;;;;6219438;28;20137;-71
2021/06/14 04:55:36;;;;;;;25.52;22.33;;;;;;;;;;6223779;28;20062;-71
2021/06/14 04:58:38;;;;;;;25.60;22.58;;;;;;;;;;6223789;28;20492;-71
2021/06/14 05:01:43;;;;;;;26.92;22.45;;;;;;;;;;6223908;28;20058;-71
2021/06/14 05:04:44;;;;;;;22.67;20.25;;;;;;;;;;6206815;28;20050;-71
2021/06/14 05:07:46;;;;;;;24.02;20.88;;;;;;;;;;6200566;28;20133;-71
2021/06/14 05:10:48;;;;;;;26.00;22.02;;;;;;;;;;6199013;28;20139;-74
2021/06/14 05:13:50;;;;;;;27.17;20.77;;;;;;;;;;6199510;28;20046;-71
2021/06/14 05:16:53;;;;;;;25.92;20.50;;;;;;;;;;6198115;28;20057;-71
2021/06/14 05:19:55;;;;;;;24.20;21.17;;;;;;;;;;6198894;28;20054;-71
2021/06/14 05:22:57;;;;;;;26.02;20.83;;;;;;;;;;6199044;28;20054;-70
2021/06/14 05:25:58;;;;;;;26.55;20.38;;;;;;;;;;6198337;28;20054;-70
2021/06/14 05:29:00;;;;;;;21.85;19.50;;;;;;;;;;6198293;28;20096;-69
2021/06/14 05:32:04;;;;;;;27.45;20.50;;;;;;;;;;6195199;28;20046;-69
2021/06/14 05:35:07;;;;;;;21.80;18.85;;;;;;;;;;6198494;28;20080;-70
2021/06/14 05:38:08;;;;;;;21.67;18.70;;;;;;;;;;6192920;28;20127;-70
2021/06/14 05:41:10;;;;;;;21.25;18.80;;;;;;;;;;6199071;28;20046;-69
2021/06/14 05:44:12;;;;;;;21.00;17.52;;;;;;;;;;6198913;28;20133;-68
2021/06/14 05:47:15;;;;;;;20.02;17.73;;;;;;;;;;6198897;28;20069;-69
2021/06/14 05:50:16;;;;;;;22.23;16.90;;;;;;;;;;6198078;28;20133;-69
2021/06/14 05:53:19;;;;;;;19.40;15.73;;;;;;;;;;6199049;28;20062;-69
2021/06/14 05:56:21;;;;;;;18.35;15.13;;;;;;;;;;6202306;28;20080;-69
2021/06/14 05:59:23;;;;;;;17.73;15.90;;;;;;;;;;6198093;28;20042;-69
2021/06/14 06:02:25;;;;;;;18.38;15.82;;;;;;;;;;6197384;28;20050;-70
2021/06/14 06:05:27;;;;;;;15.88;13.95;;;;;;;;;;6220646;28;20470;-70
2021/06/14 06:08:29;;;;;;;18.30;13.20;;;;;;;;;;6222054;28;20046;-70
2021/06/14 06:11:32;;;;;;;17.95;12.57;;;;;;;;;;6222786;28;20054;-69
2021/06/14 06:14:34;;;;;;;15.50;12.85;;;;;;;;;;6221837;28;20045;-70
2021/06/14 06:17:37;;;;;;;18.45;12.43;;;;;;;;;;6223232;28;20126;-69
2021/06/14 06:20:39;;;;;;;17.50;12.85;;;;;;;;;;6222214;28;20050;-69
2021/06/14 06:23:41;;;;;;;12.40;11.10;;;;;;;;;;6222378;28;20050;-74
2021/06/14 06:29:52;;;;;;;12.25;10.95;;;;;;;;;;6703500;22;20049;-71
2021/06/14 06:32:56;;;;;;;13.43;9.63;;;;;;;;;;6519963;22;20049;-74
2021/06/14 06:35:57;;;;;;;11.98;9.68;;;;;;;;;;6286820;28;20061;-74
2021/06/14 06:39:00;;;;;;;12.40;10.48;;;;;;;;;;6285687;28;20504;-74
2021/06/14 06:42:04;;;;;;;10.25;8.93;;;;;;;;;;6286940;28;20053;-74
2021/06/14 06:45:08;;;;;;;11.43;8.20;;;;;;;;;;6286483;28;20511;-74
2021/06/14 06:48:12;;;;;;;10.40;7.82;;;;;;;;;;6287284;28;20045;-72
2021/06/14 06:51:13;;;;;;;11.32;8.73;;;;;;;;;;6287541;28;20492;-73
2021/06/14 06:54:17;;;;;;;12.05;7.22;;;;;;;;;;6281783;28;20057;-76
2021/06/14 06:57:20;;;;;;;9.18;7.22;;;;;;;;;;6286178;28;20048;-73
2021/06/14 07:00:23;;;;;;;10.50;8.27;;;;;;;;;;6287961;28;20106;-73
2021/06/14 07:03:27;;;;;;;7.50;6.80;;;;;;;;;;6286684;28;20053;-72
2021/06/14 07:06:29;;;;;;;9.07;6.57;;;;;;;;;;6287460;28;20495;-72
2021/06/14 07:09:31;;;;;;;9.50;6.70;;;;;;;;;;6287292;28;20044;-72
2021/06/14 07:12:35;;;;;;;8.90;7.80;;;;;;;;;;6287470;28;20049;-72
2021/06/14 07:15:37;;;;;;;10.52;7.35;;;;;;;;;;6286027;28;20127;-73
2021/06/14 07:18:40;;;;;;;8.15;6.20;;;;;;;;;;6270267;28;20048;-73
2021/06/14 07:21:41;;;;;;;10.48;6.68;;;;;;;;;;6287396;28;20045;-73
2021/06/14 07:24:43;;;;;;;10.98;6.80;;;;;;;;;;6293576;28;20045;-73
2021/06/14 07:27:45;;;;;;;6.72;5.55;;;;;;;;;;6287733;28;20099;-74
2021/06/14 07:30:47;;;;;;;9.30;5.70;;;;;;;;;;6286386;28;20052;-72
2021/06/14 07:33:50;;;;;;;7.72;5.68;;;;;;;;;;6286716;28;20050;-73
2021/06/14 07:36:52;;;;;;;;;;;;;;;;;;6286703;28;20118;-73
2021/06/14 07:39:53;;;;;;;8.48;5.40;;;;;;;;;;6286133;28;19921;-73
2021/06/14 07:42:55;;;;;;;9.70;5.43;;;;;;;;;;6284267;28;20421;-73
2021/06/14 07:45:57;;;;;;;6.28;5.25;;;;;;;;;;6285867;28;20048;-73
2021/06/14 07:49:00;;;;;;;8.45;4.80;;;;;;;;;;6278617;28;20048;-74
2021/06/14 07:52:02;;;;;;;5.80;5.07;;;;;;;;;;6285508;28;20064;-73
2021/06/14 07:55:05;;;;;;;6.05;5.40;;;;;;;;;;6285120;28;20045;-73
2021/06/14 07:58:07;;;;;;;6.72;4.47;;;;;;;;;;6285100;28;20049;-73
2021/06/14 08:01:09;;;;;;;6.22;4.88;;;;;;;;;;6283842;28;20041;-73
2021/06/14 08:04:12;;;;;;;9.38;5.00;;;;;;;;;;6285363;28;20063;-72
2021/06/14 08:07:14;;;;;;;6.78;5.00;;;;;;;;;;6275886;28;20045;-73
2021/06/14 08:10:17;;;;;;;6.32;4.43;;;;;;;;;;6285771;28;20045;-72
2021/06/14 08:13:19;;;;;;;7.60;3.97;;;;;;;;;;6287043;28;20056;-73
2021/06/14 08:16:21;;;;;;;6.10;4.35;;;;;;;;;;6287521;28;20045;-73
2021/06/14 08:19:33;;;;;;;7.30;4.50;;;;;;;;;;6284714;28;20057;-73
2021/06/14 08:25:03;;;;;;;5.40;3.90;;;;;;;;;;6286154;28;20110;-73
2021/06/14 08:26:11;;;;;;;8.88;4.00;;;;;;;;;;6285623;28;20554;-72
2021/06/14 08:29:14;;;;;;;8.27;4.40;;;;;;;;;;6286320;28;20056;-73
2021/06/14 08:32:16;;;;;;;5.20;4.10;;;;;;;;;;6284717;28;20072;-73
2021/06/14 08:35:20;;;;;;;5.00;3.90;;;;;;;;;;6285881;28;20041;-72
2021/06/14 08:38:22;;;;;;;5.93;4.45;;;;;;;;;;6285354;28;20061;-76
2021/06/14 08:41:25;;;;;;;6.45;4.65;;;;;;;;;;6285787;28;20060;-73
2021/06/14 08:44:27;;;;;;;5.70;4.30;;;;;;;;;;6285442;28;20069;-73
2021/06/14 08:47:29;;;;;;;5.13;4.30;;;;;;;;;;6282082;28;20083;-74
2021/06/14 08:50:32;;;;;;;;;;;;;;;;;;6282812;28;20060;-73
2021/06/14 08:53:35;;;;;;;6.18;3.80;;;;;;;;;;6284206;28;19928;-72
2021/06/14 08:56:37;;;;;;;10.18;4.45;;;;;;;;;;6282709;28;20574;-73
2021/06/14 08:59:39;;;;;;;6.38;4.43;;;;;;;;;;6281448;28;20049;-73
2021/06/14 09:02:42;;;;;;;;;;;;;;;;;;6281989;28;20080;-72
2021/06/14 09:05:45;;;;;;;6.20;5.10;;;;;;;;;;6283721;28;19983;-72
2021/06/14 09:08:58;;;;;;;4.65;4.25;;;;;;;;;;6284049;28;20064;-72
2021/06/14 09:12:02;;;;;;;7.40;4.50;;;;;;;;;;6284759;28;20063;-72
2021/06/14 09:15:08;;;;;;;4.05;3.53;;;;;;;;;;6282972;28;20496;-73
2021/06/14 09:18:22;;;;;;;4.78;3.20;;;;;;;;;;6282343;28;20060;-72
2021/06/14 09:21:27;;;;;;;21.90;4.90;;;;;;;;;;6286075;28;20122;-75
2021/06/14 09:24:29;;;;;;;5.97;3.92;;;;;;;;;;6284379;28;20087;-72
2021/06/14 09:27:33;;;;;;;18.42;4.85;;;;;;;;;;6286947;28;20557;-73
2021/06/14 09:34:12;;;;;;;4.65;3.45;;;;;;;;;;6284400;28;20132;-72
2021/06/14 09:37:17;;;;;;;7.18;3.13;;;;;;;;;;6283320;28;20086;-74
2021/06/14 09:40:28;;;;;;;9.50;2.90;;;;;;;;;;6326461;28;20073;-76
2021/06/14 09:43:32;;;;;;;4.00;2.90;;;;;;;;;;6328741;28;20119;-72
2021/06/14 09:46:36;;;;;;;5.93;3.40;;;;;;;;;;6332670;28;20094;-73
2021/06/14 09:49:38;;;;;;;6.35;3.25;;;;;;;;;;6332643;28;20048;-73
2021/06/14 09:52:41;;;;;;;3.95;3.42;;;;;;;;;;6332406;28;20441;-72
2021/06/14 09:55:44;;;;;;;5.15;3.25;;;;;;;;;;6333763;28;20047;-72
2021/06/14 09:58:48;;;;;;;5.70;3.30;;;;;;;;;;6331096;28;20568;-71
2021/06/14 10:01:50;;;;;;;4.93;3.97;;;;;;;;;;6332051;28;20044;-70
2021/06/14 10:04:53;;;;;;;;;;;;;;;;;;6332688;28;20059;-74
2021/06/14 10:07:56;;;;;;;5.03;3.85;;;;;;;;;;6333979;28;19994;-74
2021/06/14 10:11:03;;;;;;;5.90;4.20;;;;;;;;;;6320615;28;20051;-74
2021/06/14 10:14:10;;;;;;;6.68;4.03;;;;;;;;;;6333782;28;20536;-74
2021/06/14 10:17:11;;;;;;;6.78;3.40;;;;;;;;;;6332613;28;20574;-75
2021/06/14 10:20:14;;;;;;;;;;;;;;;;;;6333688;28;20086;-74
2021/06/14 10:23:17;;;;;;;5.95;3.72;;;;;;;;;;6332232;28;19966;-73
2021/06/14 10:26:27;;;;;;;4.50;3.70;;;;;;;;;;6332255;28;20499;-69
2021/06/14 10:29:29;;;;;;;4.65;3.45;;;;;;;;;;6331459;28;20059;-71
2021/06/14 10:32:31;;;;;;;;;;;;;;;;;;6331696;28;20040;-74
2021/06/14 10:35:32;;;;;;;6.93;3.47;;;;;;;;;;6331168;28;19928;-74
2021/06/14 10:38:36;;;;;;;;;;;;;;;;;;6332731;28;20074;-73
2021/06/14 10:41:39;;;;;;;4.90;3.35;;;;;;;;;;6329651;28;19964;-74
2021/06/14 10:44:41;;;;;;;6.97;3.50;;;;;;;;;;6332331;28;20048;-74
2021/06/14 10:47:46;;;;;;;4.25;3.85;;;;;;;;;;6331674;28;20044;-74
2021/06/14 10:50:48;;;;;;;5.32;3.70;;;;;;;;;;6329663;28;20044;-76
2021/06/14 10:53:51;;;;;;;6.82;3.85;;;;;;;;;;6330565;28;20124;-72
2021/06/14 10:57:03;;;;;;;8.93;4.63;;;;;;;;;;6331151;28;20117;-73
2021/06/14 11:00:06;;;;;;;;;;;;;;;;;;6332322;28;20409;-73
2021/06/14 11:03:09;;;;;;;9.70;4.80;;;;;;;;;;6328705;28;19982;-72
2021/06/14 11:06:19;;;;;;;4.13;3.72;;;;;;;;;;6330878;28;20075;-73
2021/06/14 11:09:22;;;;;;;5.68;3.97;;;;;;;;;;6330282;28;20483;-74
2021/06/14 11:12:26;;;;;;;4.93;3.67;;;;;;;;;;6328549;28;20052;-72
2021/06/14 11:15:33;;;;;;;4.18;3.78;;;;;;;;;;6336300;28;20066;-75
2021/06/14 11:18:35;;;;;;;5.28;4.00;;;;;;;;;;6338225;28;20124;-71
2021/06/14 11:21:39;;;;;;;;;;;;;;;;;;6326862;28;20097;-72
2021/06/14 11:24:43;;;;;;;5.78;4.75;;;;;;;;;;6338601;28;19920;-74
2021/06/14 11:27:45;;;;;;;7.88;4.00;;;;;;;;;;6338518;28;20047;-73
2021/06/14 11:30:50;;;;;;;;;;;;;;;;;;6338889;28;20051;-74
2021/06/14 11:33:53;;;;;;;8.95;4.38;;;;;;;;;;6338978;28;19987;-73
2021/06/14 11:36:57;;;;;;;6.72;4.10;;;;;;;;;;6337965;28;20058;-73
2021/06/14 11:40:02;;;;;;;4.40;3.72;;;;;;;;;;6337697;28;20044;-72
2021/06/14 11:43:10;;;;;;;7.47;3.90;;;;;;;;;;6337169;28;20048;-73
2021/06/14 11:46:22;;;;;;;6.47;3.80;;;;;;;;;;6339218;28;20048;-69
2021/06/14 11:49:32;;;;;;;4.43;4.03;;;;;;;;;;6334873;28;20048;-75
2021/06/14 11:52:43;;;;;;;6.93;3.70;;;;;;;;;;6338846;28;20055;-73
2021/06/14 11:55:47;;;;;;;5.68;3.97;;;;;;;;;;6317214;28;20452;-74
2021/06/14 11:58:49;;;;;;;5.00;3.85;;;;;;;;;;6363367;28;20051;-73
2021/06/14 12:01:54;;;;;;;4.72;4.25;;;;;;;;;;6361981;28;20478;-74
2021/06/14 12:04:57;;;;;;;6.93;3.45;;;;;;;;;;6363051;28;20055;-74
2021/06/14 12:07:59;;;;;;;8.30;3.70;;;;;;;;;;6363266;28;20065;-73
2021/06/14 12:11:07;;;;;;;10.85;4.38;;;;;;;;;;6361982;28;20097;-73
2021/06/14 12:14:19;;;;;;;4.57;4.07;;;;;;;;;;6362754;28;20088;-73
2021/06/14 12:17:25;;;;;;;;;;;;;;;;;;6364057;28;20048;-73
2021/06/14 12:20:40;;;;;;;9.48;3.38;;;;;;;;;;6363024;28;19919;-74
2021/06/14 12:23:43;;;;;;;5.47;3.65;;;;;;;;;;6359352;28;20089;-74
2021/06/14 12:26:46;;;;;;;4.00;3.50;;;;;;;;;;6362758;28;20059;-73
2021/06/14 12:30:01;;;;;;;7.22;4.15;;;;;;;;;;6363123;28;20043;-74
2021/06/14 12:33:05;;;;;;;5.05;3.92;;;;;;;;;;6364070;28;20460;-73
2021/06/14 12:36:13;;;;;;;19.25;5.53;;;;;;;;;;6363669;28;20046;-73
2021/06/14 12:39:19;;;;;;;80.47;9.70;;;;;;;;;;6362971;28;20049;-73
2021/06/14 12:42:23;;;;;;;6.28;3.97;;;;;;;;;;6363845;28;20054;-73
2021/06/14 12:45:26;;;;;;;5.72;4.20;;;;;;;;;;6351214;28;20063;-73
2021/06/14 12:48:28;;;;;;;5.47;3.60;;;;;;;;;;6357215;28;20047;-72
2021/06/14 12:51:34;;;;;;;8.60;3.40;;;;;;;;;;6362326;28;20097;-73
2021/06/14 12:54:39;;;;;;;5.38;3.60;;;;;;;;;;6360291;28;20047;-73
2021/06/14 12:57:43;;;;;;;4.93;3.65;;;;;;;;;;6357471;28;20050;-73
2021/06/14 13:00:47;;;;;;;4.95;3.80;;;;;;;;;;6359314;28;20051;-74
2021/06/14 13:03:51;;;;;;;8.55;4.45;;;;;;;;;;6358576;28;20071;-72
2021/06/14 13:06:52;;;;;;;7.75;4.30;;;;;;;;;;6356731;28;20054;-73
2021/06/14 13:09:54;;;;;;;6.13;4.10;;;;;;;;;;6359404;28;20490;-72
2021/06/14 13:12:57;;;;;;;3.97;3.58;;;;;;;;;;6353507;28;20049;-72
2021/06/14 13:16:05;;;;;;;5.78;4.60;;;;;;;;;;6358965;28;20047;-72
2021/06/14 13:19:07;;;;;;;3.88;3.42;;;;;;;;;;6358575;28;20047;-72
2021/06/14 13:22:10;;;;;;;5.97;3.70;;;;;;;;;;6359363;28;20039;-72
2021/06/14 13:25:12;;;;;;;4.88;3.65;;;;;;;;;;6358493;28;20040;-72
2021/06/14 13:28:28;;;;;;;5.57;3.95;;;;;;;;;;6358335;28;20044;-72
2021/06/14 13:31:31;;;;;;;9.10;3.40;;;;;;;;;;6353530;28;20093;-73
2021/06/14 13:34:35;;;;;;;7.07;3.72;;;;;;;;;;6359070;28;20051;-73
2021/06/14 13:37:38;;;;;;;7.43;3.75;;;;;;;;;;6357612;28;20410;-73
2021/06/14 13:40:39;;;;;;;6.45;3.72;;;;;;;;;;6359040;28;20044;-72
2021/06/14 13:43:45;;;;;;;5.88;3.30;;;;;;;;;;6355703;28;20387;-73
2021/06/14 13:46:54;;;;;;;9.52;3.70;;;;;;;;;;6356607;28;20454;-72
2021/06/14 13:50:05;;;;;;;6.97;3.92;;;;;;;;;;6357787;28;20048;-72
2021/06/14 13:53:11;;;;;;;3.80;3.50;;;;;;;;;;6355803;28;20048;-72
2021/06/14 13:56:13;;;;;;;3.70;3.33;;;;;;;;;;6356759;28;20051;-73
2021/06/14 13:59:20;;;;;;;4.15;3.75;;;;;;;;;;6353479;28;20061;-72
2021/06/14 14:02:24;;;;;;;5.10;3.90;;;;;;;;;;6357432;28;20486;-72
2021/06/14 14:05:29;;;;;;;4.90;4.50;;;;;;;;;;6353598;28;20063;-73
2021/06/14 14:08:36;;;;;;;5.22;4.00;;;;;;;;;;6354863;28;20052;-74
2021/06/14 14:11:46;;;;;;;4.00;3.60;;;;;;;;;;6358350;28;20054;-73
2021/06/14 14:14:52;;;;;;;5.25;3.70;;;;;;;;;;6358558;28;20085;-72
2021/06/14 14:17:54;;;;;;;5.50;3.50;;;;;;;;;;6358774;28;20051;-73
2021/06/14 14:21:05;;;;;;;5.82;3.85;;;;;;;;;;6354760;28;20061;-72
2021/06/14 14:24:07;;;;;;;6.57;4.20;;;;;;;;;;6356536;28;20516;-72
2021/06/14 14:27:09;;;;;;;6.85;4.72;;;;;;;;;;6336491;28;20064;-72
2021/06/14 14:30:13;;;;;;;5.68;4.25;;;;;;;;;;6342351;28;20120;-72
2021/06/14 14:33:16;;;;;;;6.70;3.90;;;;;;;;;;6345444;28;20063;-72
2021/06/14 14:36:17;;;;;;;5.57;4.57;;;;;;;;;;6355887;28;20056;-72
2021/06/14 14:39:21;;;;;;;12.65;4.10;;;;;;;;;;6356039;28;20048;-72
2021/06/14 14:42:23;;;;;;;6.53;4.30;;;;;;;;;;6356630;28;20052;-72
2021/06/14 14:45:27;;;;;;;6.88;4.68;;;;;;;;;;6357410;28;20071;-72
2021/06/14 14:48:30;;;;;;;6.32;4.45;;;;;;;;;;6359177;28;20055;-73
2021/06/14 14:51:32;;;;;;;5.03;4.53;;;;;;;;;;6362262;28;20052;-72
2021/06/14 14:54:33;;;;;;;8.32;5.03;;;;;;;;;;6361215;28;20047;-72
2021/06/14 14:57:35;;;;;;;5.70;4.68;;;;;;;;;;6356991;28;20101;-72
2021/06/14 15:00:38;;;;;;;8.25;4.40;;;;;;;;;;6352841;28;20116;-72
2021/06/14 15:03:43;;;;;;;6.53;4.00;;;;;;;;;;6360821;28;20052;-75
2021/06/14 15:06:45;;;;;;;6.45;4.10;;;;;;;;;;6360696;28;20076;-71
2021/06/14 15:09:47;;;;;;;6.20;4.50;;;;;;;;;;6345694;28;20052;-72
2021/06/14 15:12:49;;;;;;;7.93;5.07;;;;;;;;;;6362125;28;20050;-72
2021/06/14 15:15:53;;;;;;;5.32;4.30;;;;;;;;;;6362010;28;20056;-72
2021/06/14 15:18:54;;;;;;;7.45;4.20;;;;;;;;;;6361458;28;20039;-72
2021/06/14 15:21:56;;;;;;;5.23;4.60;;;;;;;;;;6360935;28;20386;-72
2021/06/14 15:24:58;;;;;;;5.23;4.80;;;;;;;;;;6362330;28;20127;-76
2021/06/14 15:28:00;;;;;;;10.83;4.67;;;;;;;;;;6360428;28;20529;-72
2021/06/14 15:31:03;;;;;;;5.85;5.00;;;;;;;;;;6359613;28;20963;-71
2021/06/14 15:34:05;;;;;;;5.22;4.38;;;;;;;;;;6360025;28;20040;-71
2021/06/14 15:37:07;;;;;;;10.23;5.15;;;;;;;;;;6359489;28;20062;-71
2021/06/14 15:40:10;;;;;;;9.48;4.40;;;;;;;;;;6358814;28;20103;-72
2021/06/14 15:43:15;;;;;;;9.80;4.28;;;;;;;;;;6359765;28;20051;-72
2021/06/14 15:46:18;;;;;;;8.95;4.65;;;;;;;;;;6357516;28;20044;-71
2021/06/14 15:49:29;;;;;;;10.68;4.50;;;;;;;;;;6356151;28;20108;-71
2021/06/14 15:52:32;;;;;;;6.90;5.07;;;;;;;;;;6361371;28;20046;-71
2021/06/14 15:55:33;;;;;;;6.13;4.68;;;;;;;;;;6362113;28;20054;-71
2021/06/14 15:58:35;;;;;;;6.60;4.60;;;;;;;;;;6345547;28;20127;-71
2021/06/14 16:01:38;;;;;;;9.88;4.95;;;;;;;;;;6336276;28;20493;-76
2021/06/14 16:04:41;;;;;;;5.53;4.90;;;;;;;;;;6338593;28;20132;-70
2021/06/14 16:07:43;;;;;;;;;;;;;;;;;;6337129;28;20048;-71
2021/06/14 16:11:00;;;;;;;7.90;5.13;;;;;;;;;;6336839;28;19920;-71
2021/06/14 16:14:07;;;;;;;8.55;5.78;;;;;;;;;;6353131;28;20378;-71
2021/06/14 16:17:11;;;;;;;5.93;5.20;;;;;;;;;;6358235;28;20096;-71
2021/06/14 16:20:15;;;;;;;7.13;5.63;;;;;;;;;;6362051;28;20060;-70
2021/06/14 16:23:17;;;;;;;6.03;5.43;;;;;;;;;;6351824;28;20051;-78
2021/06/14 16:26:19;;;;;;;9.07;6.03;;;;;;;;;;6343652;28;20096;-71
2021/06/14 16:29:21;;;;;;;8.52;5.47;;;;;;;;;;6356886;28;20067;-71
2021/06/14 16:32:24;;;;;;;5.70;5.10;;;;;;;;;;6360167;28;20074;-71
2021/06/14 16:35:26;;;;;;;5.88;5.28;;;;;;;;;;6360813;28;20133;-76
2021/06/14 16:38:28;;;;;;;6.15;5.20;;;;;;;;;;6358607;28;20058;-70
2021/06/14 16:41:31;;;;;;;8.27;4.97;;;;;;;;;;6360167;28;20040;-70
2021/06/14 16:44:33;;;;;;;8.77;5.38;;;;;;;;;;6361317;28;20059;-70
2021/06/14 16:47:36;;;;;;;9.70;5.15;;;;;;;;;;6359490;28;20059;-70
2021/06/14 16:50:37;;;;;;;6.80;5.45;;;;;;;;;;6360921;28;20463;-74
2021/06/14 16:53:39;;;;;;;6.15;4.75;;;;;;;;;;6358819;28;20043;-71
2021/06/14 16:56:41;;;;;;;7.93;5.70;;;;;;;;;;6357989;28;20044;-70
2021/06/14 16:59:43;;;;;;;7.00;5.40;;;;;;;;;;6357922;28;20047;-69
2021/06/14 17:02:47;;;;;;;8.23;5.90;;;;;;;;;;6361103;28;20458;-70
2021/06/14 17:05:49;;;;;;;6.03;5.28;;;;;;;;;;6360051;28;20063;-71
2021/06/14 17:08:50;;;;;;;6.53;4.95;;;;;;;;;;6359719;28;20051;-71
2021/06/14 17:11:52;;;;;;;8.25;5.22;;;;;;;;;;6356796;28;20063;-70
2021/06/14 17:14:55;;;;;;;7.63;5.35;;;;;;;;;;6359647;28;20055;-71
2021/06/14 17:18:01;;;;;;;7.97;5.53;;;;;;;;;;6355673;28;20054;-71
2021/06/14 17:21:03;;;;;;;6.35;5.68;;;;;;;;;;6359755;28;20055;-70
2021/06/14 17:24:07;;;;;;;7.88;5.30;;;;;;;;;;6358067;28;20048;-71
2021/06/14 17:27:09;;;;;;;6.75;6.05;;;;;;;;;;6357489;28;20121;-70
2021/06/14 17:30:14;;;;;;;10.82;5.55;;;;;;;;;;6358979;28;20052;-70
2021/06/14 17:33:17;;;;;;;6.45;5.13;;;;;;;;;;6356673;28;20059;-70
2021/06/14 17:36:19;;;;;;;8.65;5.68;;;;;;;;;;6358632;28;20112;-70
2021/06/14 17:39:21;;;;;;;8.98;4.75;;;;;;;;;;6358096;28;20048;-71
2021/06/14 17:42:23;;;;;;;5.45;4.68;;;;;;;;;;6359306;28;20051;-71
2021/06/14 17:45:24;;;;;;;8.43;5.07;;;;;;;;;;6358484;28;20371;-71
2021/06/14 17:48:28;;;;;;;8.35;6.00;;;;;;;;;;6359536;28;20051;-74
2021/06/14 17:51:30;;;;;;;7.55;5.25;;;;;;;;;;6332711;28;20117;-70
2021/06/14 17:54:32;;;;;;;6.10;5.50;;;;;;;;;;6333704;28;20048;-71
2021/06/14 17:57:36;;;;;;;6.45;5.00;;;;;;;;;;6329259;28;20149;-71
2021/06/14 18:00:38;;;;;;;10.50;5.22;;;;;;;;;;6333770;28;20486;-71
2021/06/14 18:03:42;;;;;;;5.73;4.43;;;;;;;;;;6331557;28;20040;-70
2021/06/14 18:06:43;;;;;;;7.85;5.90;;;;;;;;;;6333727;28;20125;-71
2021/06/14 18:09:45;;;;;;;8.27;5.10;;;;;;;;;;6334591;28;20051;-71
2021/06/14 18:12:47;;;;;;;10.93;5.75;;;;;;;;;;6334796;28;20480;-73
2021/06/14 18:15:49;;;;;;;7.88;6.13;;;;;;;;;;6332468;28;20150;-71
2021/06/14 18:18:52;;;;;;;6.97;5.78;;;;;;;;;;6328972;28;20048;-71